Time;durP1;ratioP1;P1;durP2;ratioP2;P2;SDS_P1;SDS_P2;PMS_P1;PMS_P2;Temp;Humidity;BMP_temperature;BMP_pressure;BME280_temperature;BME280_humidity;BME280_pressure;Samples;Min_cycle;Max_cycle;Signal;HPM_P1;HPM_P2
2022/07/07 00:02:24;;;;;;;33.22;6.03;;;15.50;99.90;;;;;;5035376;28;20022;-64
2022/07/07 00:04:50;;;;;;;19.98;5.68;;;15.50;99.90;;;;;;5035068;28;20037;-64
2022/07/07 00:07:16;;;;;;;17.10;5.13;;;15.50;99.90;;;;;;5035318;28;20029;-64
2022/07/07 00:09:42;;;;;;;33.97;6.13;;;15.50;99.90;;;;;;5034968;28;20057;-64
2022/07/07 00:12:07;;;;;;;30.75;7.07;;;15.50;99.90;;;;;;5034943;28;20080;-64
2022/07/07 00:14:33;;;;;;;22.58;5.78;;;15.50;99.90;;;;;;5034861;28;20076;-64
2022/07/07 00:16:59;;;;;;;40.92;6.88;;;15.50;99.90;;;;;;5034683;28;20370;-64
2022/07/07 00:19:25;;;;;;;35.63;5.97;;;15.50;99.90;;;;;;5035044;28;20026;-64
2022/07/07 00:21:51;;;;;;;27.02;8.02;;;15.50;99.90;;;;;;5035036;28;20026;-64
2022/07/07 00:24:17;;;;;;;28.42;7.53;;;15.40;99.90;;;;;;5034666;28;20022;-64
2022/07/07 00:26:42;;;;;;;29.63;7.18;;;15.50;99.90;;;;;;5034625;28;20034;-64
2022/07/07 00:29:08;;;;;;;35.65;7.78;;;15.50;99.90;;;;;;5034519;28;20071;-64
2022/07/07 00:31:33;;;;;;;32.17;7.82;;;15.50;99.90;;;;;;5034544;28;20052;-64
2022/07/07 00:34:00;;;;;;;44.70;7.15;;;15.50;99.90;;;;;;5034539;28;20033;-64
2022/07/07 00:36:26;;;;;;;36.10;7.60;;;15.60;99.90;;;;;;5034367;28;20021;-64
2022/07/07 00:38:52;;;;;;;35.00;7.57;;;15.60;99.90;;;;;;5034575;28;20074;-64
2022/07/07 00:41:18;;;;;;;36.90;7.13;;;15.60;99.90;;;;;;5034176;28;20022;-64
2022/07/07 00:43:44;;;;;;;26.38;6.05;;;15.60;99.90;;;;;;5034451;28;20037;-64
2022/07/07 00:46:11;;;;;;;40.40;6.95;;;15.60;99.90;;;;;;5034515;28;20036;-64
2022/07/07 00:48:39;;;;;;;27.45;4.70;;;15.60;99.90;;;;;;5034393;28;20478;-64
2022/07/07 00:51:06;;;;;;;27.50;6.00;;;15.60;99.90;;;;;;5029822;28;20037;-65
2022/07/07 00:53:32;;;;;;;20.02;4.63;;;15.60;99.90;;;;;;5015517;28;20098;-64
2022/07/07 00:55:58;;;;;;;18.45;4.40;;;15.50;99.90;;;;;;5014146;28;20125;-64
2022/07/07 00:58:24;;;;;;;18.50;4.03;;;15.60;99.90;;;;;;5070556;23;20094;-68
2022/07/07 01:00:49;;;;;;;17.17;4.47;;;15.60;99.90;;;;;;5054330;28;20028;-68
2022/07/07 01:03:15;;;;;;;29.05;5.03;;;15.60;99.90;;;;;;5054701;28;20025;-68
2022/07/07 01:05:46;;;;;;;22.70;5.03;;;15.40;99.90;;;;;;5054188;28;20024;-68
2022/07/07 01:08:15;;;;;;;24.80;4.30;;;15.50;99.90;;;;;;5036385;28;20024;-68
2022/07/07 01:10:41;;;;;;;17.30;3.55;;;15.50;99.90;;;;;;5054768;28;20079;-69
2022/07/07 01:13:07;;;;;;;27.70;4.85;;;15.50;99.90;;;;;;5054216;28;20060;-68
2022/07/07 01:15:32;;;;;;;30.45;5.38;;;15.50;99.90;;;;;;5029866;28;20036;-68
2022/07/07 01:17:58;;;;;;;36.78;5.85;;;15.50;99.90;;;;;;5034553;28;20381;-68
2022/07/07 01:20:24;;;;;;;29.73;4.32;;;15.50;99.90;;;;;;5034982;28;20428;-69
2022/07/07 01:22:51;;;;;;;24.60;4.32;;;15.50;99.90;;;;;;5034049;28;20021;-69
2022/07/07 01:25:17;;;;;;;24.17;4.50;;;15.50;99.90;;;;;;5034340;28;20029;-69
2022/07/07 01:27:43;;;;;;;17.60;3.83;;;15.50;99.90;;;;;;5050135;28;20080;-69
2022/07/07 01:30:09;;;;;;;19.08;5.50;;;15.50;99.90;;;;;;5054422;28;20024;-69
2022/07/07 01:32:35;;;;;;;26.70;4.57;;;15.50;99.90;;;;;;5053775;28;20115;-69
2022/07/07 01:35:01;;;;;;;17.20;3.72;;;15.50;99.90;;;;;;5047159;28;20053;-69
2022/07/07 01:37:27;;;;;;;19.88;6.40;;;15.40;99.90;;;;;;5033964;28;20048;-69
2022/07/07 01:39:53;;;;;;;22.75;4.30;;;15.50;99.90;;;;;;5033945;28;20094;-69
2022/07/07 01:42:19;;;;;;;19.70;3.67;;;15.50;99.90;;;;;;5034073;28;20026;-69
2022/07/07 01:44:45;;;;;;;21.60;3.95;;;15.50;99.90;;;;;;5033760;28;20026;-70
2022/07/07 01:47:12;;;;;;;29.20;5.78;;;15.50;99.90;;;;;;5033723;28;20035;-69
2022/07/07 01:49:39;;;;;;;13.95;3.40;;;15.40;99.90;;;;;;5033717;28;20056;-70
2022/07/07 01:52:06;;;;;;;30.90;4.82;;;15.40;99.90;;;;;;5033099;28;20033;-69
2022/07/07 01:54:33;;;;;;;17.77;4.57;;;15.50;99.90;;;;;;5033837;28;20044;-69
2022/07/07 01:56:58;;;;;;;27.17;4.35;;;15.40;99.90;;;;;;5033706;28;20504;-69
2022/07/07 01:59:24;;;;;;;27.98;3.95;;;15.40;99.90;;;;;;5033486;28;20041;-69
2022/07/07 02:01:50;;;;;;;17.30;3.72;;;15.40;99.90;;;;;;5033687;28;20028;-69
2022/07/07 02:04:16;;;;;;;17.95;4.18;;;15.40;99.90;;;;;;5033406;28;20034;-69
2022/07/07 02:06:42;;;;;;;19.63;3.30;;;15.50;99.90;;;;;;5033893;28;20030;-69
2022/07/07 02:09:08;;;;;;;18.25;3.22;;;15.50;99.90;;;;;;5033468;28;20021;-69
2022/07/07 02:11:34;;;;;;;17.65;3.38;;;15.50;99.90;;;;;;5033486;28;20087;-69
2022/07/07 02:14:01;;;;;;;20.42;2.75;;;15.50;99.90;;;;;;5033335;28;20052;-69
2022/07/07 02:16:26;;;;;;;18.33;2.92;;;15.40;99.90;;;;;;5015660;28;20033;-69
2022/07/07 02:18:58;;;;;;;17.17;3.78;;;15.40;99.90;;;;;;5033399;28;20414;-69
2022/07/07 02:21:25;;;;;;;24.05;3.55;;;15.40;99.90;;;;;;5033635;28;20032;-69
2022/07/07 02:23:52;;;;;;;17.27;3.42;;;15.40;99.90;;;;;;5033410;28;20026;-68
2022/07/07 02:26:18;;;;;;;27.50;5.63;;;15.40;99.90;;;;;;5033409;28;20033;-68
2022/07/07 02:28:44;;;;;;;25.83;5.13;;;15.40;99.90;;;;;;5032698;28;20013;-69
2022/07/07 02:31:10;;;;;;;17.88;3.63;;;15.40;99.90;;;;;;5033818;28;20021;-69
2022/07/07 02:33:36;;;;;;;30.52;3.60;;;15.40;99.90;;;;;;5033549;28;20104;-69
2022/07/07 02:36:03;;;;;;;20.15;3.33;;;15.40;99.90;;;;;;5033264;28;20029;-69
2022/07/07 02:38:29;;;;;;;10.90;3.15;;;15.40;99.90;;;;;;5033336;28;20076;-70
2022/07/07 02:40:55;;;;;;;15.40;3.10;;;15.40;99.90;;;;;;5033491;28;20063;-69
2022/07/07 02:43:22;;;;;;;17.98;3.58;;;15.40;99.90;;;;;;5033217;28;20030;-69
2022/07/07 02:45:49;;;;;;;23.42;3.53;;;15.40;99.90;;;;;;5033303;28;20521;-69
2022/07/07 02:48:18;;;;;;;16.85;4.13;;;15.40;99.90;;;;;;5033331;28;20496;-69
2022/07/07 02:50:44;;;;;;;16.85;3.58;;;15.40;99.90;;;;;;5033243;28;20431;-69
2022/07/07 02:53:11;;;;;;;22.02;4.18;;;15.40;99.90;;;;;;5033496;28;20021;-69
2022/07/07 02:55:37;;;;;;;16.05;4.10;;;15.40;99.90;;;;;;5033334;28;20025;-69
2022/07/07 02:58:04;;;;;;;16.40;3.63;;;15.40;99.90;;;;;;5033105;28;20029;-69
2022/07/07 03:00:33;;;;;;;32.05;5.05;;;15.40;99.90;;;;;;5033335;28;20021;-69
2022/07/07 03:03:00;;;;;;;14.65;3.30;;;15.40;99.90;;;;;;5033113;28;20018;-69
2022/07/07 03:05:26;;;;;;;20.27;4.18;;;15.40;99.90;;;;;;5035983;28;20109;-69
2022/07/07 03:07:51;;;;;;;18.35;4.57;;;15.40;99.90;;;;;;5036765;28;20500;-69
2022/07/07 03:10:17;;;;;;;14.90;2.90;;;15.40;99.90;;;;;;5036712;28;20022;-69
2022/07/07 03:12:43;;;;;;;24.90;4.90;;;15.50;99.90;;;;;;5036505;28;20026;-69
2022/07/07 03:15:10;;;;;;;18.27;3.78;;;15.40;99.90;;;;;;5036370;28;20028;-69
2022/07/07 03:17:36;;;;;;;27.52;4.75;;;15.40;99.90;;;;;;5036432;28;20562;-69
2022/07/07 03:20:03;;;;;;;18.05;3.85;;;15.50;99.90;;;;;;5036393;28;20080;-69
2022/07/07 03:22:28;;;;;;;22.38;3.95;;;15.50;99.90;;;;;;5018510;28;20037;-69
2022/07/07 03:24:54;;;;;;;18.73;3.72;;;15.50;99.90;;;;;;5036841;28;20022;-69
2022/07/07 03:27:19;;;;;;;16.92;3.72;;;15.50;99.90;;;;;;5036144;28;20028;-69
2022/07/07 03:29:45;;;;;;;19.52;4.30;;;15.50;99.90;;;;;;5036093;28;20456;-69
2022/07/07 03:32:11;;;;;;;17.00;4.55;;;15.50;99.90;;;;;;5036100;28;20416;-69
2022/07/07 03:34:36;;;;;;;16.30;4.35;;;15.60;99.90;;;;;;5036076;28;20108;-69
2022/07/07 03:37:02;;;;;;;16.13;4.28;;;15.50;99.90;;;;;;5036238;28;20358;-69
2022/07/07 03:39:28;;;;;;;21.15;4.35;;;15.50;99.90;;;;;;5035862;28;20021;-69
2022/07/07 03:41:54;;;;;;;19.17;4.22;;;15.50;99.90;;;;;;5036259;28;20435;-69
2022/07/07 03:44:19;;;;;;;27.38;4.82;;;15.50;99.90;;;;;;5035833;28;20064;-69
2022/07/07 03:46:45;;;;;;;13.45;4.25;;;15.60;99.90;;;;;;5035762;28;20086;-69
2022/07/07 03:49:10;;;;;;;13.55;4.05;;;15.50;99.90;;;;;;5035786;28;20359;-69
2022/07/07 03:51:36;;;;;;;18.13;4.30;;;15.60;99.90;;;;;;5035695;28;20112;-69
2022/07/07 03:54:03;;;;;;;26.67;3.78;;;15.70;99.90;;;;;;5036026;28;20037;-69
2022/07/07 03:56:29;;;;;;;34.75;5.13;;;15.70;99.90;;;;;;5035832;28;20092;-69
2022/07/07 03:58:55;;;;;;;25.92;5.30;;;15.60;99.90;;;;;;5036117;28;20033;-69
2022/07/07 04:01:20;;;;;;;10.82;3.90;;;15.60;99.90;;;;;;5036077;28;20025;-69
2022/07/07 04:03:46;;;;;;;27.65;3.65;;;15.60;99.90;;;;;;5035586;28;20026;-69
2022/07/07 04:06:11;;;;;;;15.95;3.60;;;15.60;99.90;;;;;;5035773;28;20358;-69
2022/07/07 04:08:37;;;;;;;18.45;4.82;;;15.50;99.90;;;;;;5035537;28;20047;-69
2022/07/07 04:11:03;;;;;;;15.15;4.22;;;15.50;99.90;;;;;;5035519;28;20025;-68
2022/07/07 04:13:28;;;;;;;23.15;4.63;;;15.40;99.90;;;;;;5038071;28;20040;-69
2022/07/07 04:15:56;;;;;;;20.85;3.50;;;15.40;99.90;;;;;;5054531;28;20024;-68
2022/07/07 04:18:21;;;;;;;10.57;3.50;;;15.40;99.90;;;;;;5055038;28;20033;-68
2022/07/07 04:20:47;;;;;;;17.40;4.20;;;15.30;99.90;;;;;;5055114;28;20100;-68
2022/07/07 04:23:13;;;;;;;13.25;4.57;;;15.30;99.90;;;;;;5055011;28;20017;-68
2022/07/07 04:25:38;;;;;;;15.55;4.22;;;15.30;99.90;;;;;;5055165;28;20032;-68
2022/07/07 04:28:04;;;;;;;22.92;6.25;;;15.30;99.90;;;;;;5037050;28;20031;-68
2022/07/07 04:30:29;;;;;;;24.77;5.15;;;15.40;99.90;;;;;;5055166;28;20108;-68
2022/07/07 04:32:55;;;;;;;22.40;5.40;;;15.40;99.90;;;;;;5054891;28;20029;-68
2022/07/07 04:35:21;;;;;;;23.33;5.80;;;15.50;99.90;;;;;;5055045;28;20032;-69
2022/07/07 04:37:46;;;;;;;21.25;7.15;;;15.40;99.90;;;;;;5055184;28;20029;-69
2022/07/07 04:40:12;;;;;;;23.92;6.60;;;15.40;99.90;;;;;;5055308;28;20025;-69
2022/07/07 04:42:37;;;;;;;26.00;6.88;;;15.40;99.90;;;;;;5054882;28;20059;-69
2022/07/07 04:45:03;;;;;;;33.88;8.15;;;15.50;99.90;;;;;;5054654;28;20039;-69
2022/07/07 04:47:29;;;;;;;28.83;6.40;;;15.50;99.90;;;;;;5054996;28;20033;-69
2022/07/07 04:49:54;;;;;;;32.72;7.03;;;15.70;99.90;;;;;;5054860;28;20029;-69
2022/07/07 04:52:20;;;;;;;28.52;6.28;;;15.70;99.90;;;;;;5036553;28;20068;-69
2022/07/07 04:54:45;;;;;;;23.27;5.70;;;15.70;99.90;;;;;;5034786;28;20026;-69
2022/07/07 04:57:11;;;;;;;26.23;5.93;;;15.70;99.90;;;;;;5034454;28;20029;-70
2022/07/07 04:59:37;;;;;;;25.67;6.35;;;15.80;99.90;;;;;;5034408;28;20025;-70
2022/07/07 05:02:03;;;;;;;27.48;6.90;;;15.90;99.90;;;;;;5034160;28;20584;-69
2022/07/07 05:04:28;;;;;;;18.45;5.85;;;15.80;99.90;;;;;;5034636;28;20032;-69
2022/07/07 05:06:54;;;;;;;21.52;6.25;;;15.90;99.90;;;;;;5034104;28;20469;-69
2022/07/07 05:09:20;;;;;;;22.63;5.38;;;15.90;99.90;;;;;;5034540;28;20064;-69
2022/07/07 05:11:45;;;;;;;27.15;6.32;;;15.80;99.90;;;;;;5034387;28;20079;-69
2022/07/07 05:14:11;;;;;;;27.35;5.43;;;15.80;99.90;;;;;;5034287;28;20029;-69
2022/07/07 05:16:37;;;;;;;23.27;6.05;;;15.70;99.90;;;;;;5034244;28;20029;-69
2022/07/07 05:19:03;;;;;;;19.10;4.15;;;15.70;99.90;;;;;;5034122;28;20022;-69
2022/07/07 05:21:28;;;;;;;17.73;4.75;;;15.70;99.90;;;;;;5034114;28;20021;-69
2022/07/07 05:23:54;;;;;;;16.90;5.45;;;15.70;99.90;;;;;;5034216;28;20425;-70
2022/07/07 05:26:20;;;;;;;23.55;4.90;;;15.70;99.90;;;;;;5033357;28;20076;-69
2022/07/07 05:28:46;;;;;;;24.77;5.03;;;15.70;99.90;;;;;;5033849;28;20048;-69
2022/07/07 05:31:14;;;;;;;19.20;5.18;;;15.60;99.90;;;;;;5034388;28;20393;-69
2022/07/07 05:33:40;;;;;;;26.65;6.50;;;15.60;99.90;;;;;;5033913;28;20457;-70
2022/07/07 05:36:06;;;;;;;26.95;4.88;;;15.60;99.90;;;;;;5033816;28;20037;-70
2022/07/07 05:38:33;;;;;;;22.25;4.35;;;15.70;99.90;;;;;;5033838;28;20033;-70
2022/07/07 05:40:59;;;;;;;25.38;4.47;;;15.80;99.90;;;;;;5033714;28;20022;-70
2022/07/07 05:43:25;;;;;;;23.23;4.28;;;15.80;99.90;;;;;;5033731;28;20021;-70
2022/07/07 05:45:50;;;;;;;24.25;3.67;;;15.90;99.90;;;;;;5034192;28;20025;-70
2022/07/07 05:48:16;;;;;;;16.08;4.25;;;15.90;99.90;;;;;;5034095;28;20053;-70
2022/07/07 05:50:42;;;;;;;20.65;4.72;;;15.90;99.90;;;;;;5034132;28;20034;-70
2022/07/07 05:53:08;;;;;;;17.17;4.10;;;15.90;99.90;;;;;;5033709;28;20039;-70
2022/07/07 05:55:33;;;;;;;14.32;3.13;;;15.90;99.90;;;;;;5020942;28;20080;-70
2022/07/07 05:57:59;;;;;;;16.35;3.05;;;15.90;99.90;;;;;;5013911;28;20034;-70
2022/07/07 06:00:25;;;;;;;12.20;3.13;;;15.90;99.90;;;;;;5013960;28;20084;-70
2022/07/07 06:02:52;;;;;;;19.48;2.92;;;16.00;99.90;;;;;;4996522;28;20431;-70
2022/07/07 06:05:17;;;;;;;18.23;3.25;;;16.00;99.90;;;;;;5033656;28;20076;-70
2022/07/07 06:07:43;;;;;;;14.65;3.10;;;16.00;99.90;;;;;;5034223;28;20025;-70
2022/07/07 06:10:12;;;;;;;19.52;3.65;;;16.10;99.90;;;;;;5033824;28;20492;-70
2022/07/07 06:12:38;;;;;;;15.90;3.05;;;16.20;99.90;;;;;;5033766;28;20033;-70
2022/07/07 06:15:04;;;;;;;12.02;2.90;;;16.20;99.90;;;;;;5033564;28;20060;-70
2022/07/07 06:17:30;;;;;;;17.70;2.95;;;16.30;99.90;;;;;;5034169;28;20042;-70
2022/07/07 06:19:56;;;;;;;10.02;3.00;;;16.30;99.90;;;;;;5034743;28;20029;-70
2022/07/07 06:22:22;;;;;;;12.13;2.92;;;16.40;99.90;;;;;;5034933;28;20112;-70
2022/07/07 06:24:48;;;;;;;11.50;2.83;;;16.40;99.90;;;;;;5035113;28;20123;-70
2022/07/07 06:27:13;;;;;;;17.15;4.72;;;16.50;99.90;;;;;;5033764;28;20554;-70
2022/07/07 06:29:39;;;;;;;17.98;3.25;;;16.50;99.90;;;;;;5033372;28;20021;-70
2022/07/07 06:32:05;;;;;;;18.50;3.47;;;16.70;99.90;;;;;;5033360;28;20022;-70
2022/07/07 06:34:30;;;;;;;11.07;2.83;;;17.10;99.90;;;;;;5033645;28;20021;-70
2022/07/07 06:36:56;;;;;;;8.95;2.47;;;17.20;99.90;;;;;;5033306;28;20025;-70
2022/07/07 06:39:22;;;;;;;9.52;2.05;;;17.30;99.90;;;;;;5036183;28;20025;-70
2022/07/07 06:41:47;;;;;;;10.30;3.05;;;17.10;99.90;;;;;;5037510;28;20091;-70
2022/07/07 06:44:13;;;;;;;14.27;2.72;;;17.10;99.90;;;;;;5037325;28;20029;-70
2022/07/07 06:46:39;;;;;;;5.60;2.08;;;16.90;99.90;;;;;;5037223;28;20029;-70
2022/07/07 06:49:05;;;;;;;11.15;2.08;;;16.80;99.90;;;;;;5037409;28;20029;-70
2022/07/07 06:51:31;;;;;;;9.75;2.38;;;16.60;99.90;;;;;;5036999;28;20044;-70
2022/07/07 06:53:57;;;;;;;9.65;2.35;;;16.50;99.90;;;;;;5036781;28;20025;-70
2022/07/07 06:56:23;;;;;;;21.00;2.75;;;16.40;99.90;;;;;;5037323;28;20022;-69
2022/07/07 06:58:49;;;;;;;13.73;2.75;;;16.30;99.90;;;;;;5060843;22;20052;-67
2022/07/07 07:01:14;;;;;;;20.75;2.63;;;16.50;99.90;;;;;;5036319;28;20480;-67
2022/07/07 07:03:40;;;;;;;12.20;2.20;;;16.60;99.90;;;;;;5036397;28;20148;-67
2022/07/07 07:06:06;;;;;;;14.43;2.45;;;16.90;99.90;;;;;;5036514;28;20026;-66
2022/07/07 07:08:32;;;;;;;10.95;2.08;;;17.10;99.90;;;;;;5035988;28;20082;-66
2022/07/07 07:10:58;;;;;;;16.02;2.25;;;17.30;99.90;;;;;;5036189;28;20455;-67
2022/07/07 07:13:23;;;;;;;9.80;2.00;;;17.50;99.90;;;;;;5036014;28;20039;-67
2022/07/07 07:15:49;;;;;;;14.35;2.75;;;17.50;99.90;;;;;;5036317;28;20030;-66
2022/07/07 07:18:14;;;;;;;8.32;1.80;;;17.40;99.90;;;;;;5035960;28;20021;-66
2022/07/07 07:20:43;;;;;;;11.60;2.17;;;17.10;99.90;;;;;;5036363;28;20025;-66
2022/07/07 07:23:08;;;;;;;12.18;1.90;;;17.10;99.90;;;;;;5035934;28;20551;-66
2022/07/07 07:25:34;;;;;;;10.45;2.30;;;16.80;99.90;;;;;;5036212;28;20033;-66
2022/07/07 07:28:00;;;;;;;11.32;2.25;;;16.70;99.90;;;;;;5035796;28;20515;-66
2022/07/07 07:30:25;;;;;;;12.75;2.88;;;17.00;99.90;;;;;;5035740;28;20057;-66
2022/07/07 07:32:51;;;;;;;12.88;2.80;;;17.20;99.90;;;;;;5036278;28;20032;-66
2022/07/07 07:35:16;;;;;;;15.77;2.72;;;17.10;99.90;;;;;;5036238;28;20496;-66
2022/07/07 07:37:42;;;;;;;11.48;2.20;;;17.00;99.90;;;;;;5035503;28;20030;-67
2022/07/07 07:40:10;;;;;;;8.50;2.15;;;16.90;99.90;;;;;;5035916;28;20025;-66
2022/07/07 07:42:36;;;;;;;10.40;2.30;;;16.80;99.90;;;;;;5035820;28;20029;-66
2022/07/07 07:45:12;;;;;;;15.07;2.42;;;16.80;99.90;;;;;;5035587;28;20032;-66
2022/07/07 07:47:46;;;;;;;8.07;2.10;;;16.80;99.90;;;;;;5035840;28;20404;-66
2022/07/07 07:50:14;;;;;;;9.90;2.15;;;17.00;99.90;;;;;;5034604;28;20108;-66
2022/07/07 07:52:41;;;;;;;8.13;2.13;;;17.30;99.90;;;;;;5017816;28;20033;-66
2022/07/07 07:55:10;;;;;;;16.98;3.03;;;17.70;99.90;;;;;;5035296;28;20152;-66
2022/07/07 07:57:35;;;;;;;5.50;1.50;;;17.90;99.90;;;;;;5035517;28;20053;-66
2022/07/07 08:00:03;;;;;;;7.80;2.20;;;17.90;99.90;;;;;;5034863;28;20122;-66
2022/07/07 08:02:29;;;;;;;10.65;2.83;;;18.00;99.90;;;;;;5035084;28;20029;-66
2022/07/07 08:04:54;;;;;;;13.70;1.80;;;18.30;99.90;;;;;;5035173;28;20043;-66
2022/07/07 08:07:20;;;;;;;7.47;2.05;;;18.40;99.90;;;;;;5035309;28;20029;-66
2022/07/07 08:09:45;;;;;;;9.77;1.90;;;18.60;99.90;;;;;;5034152;28;20075;-66
2022/07/07 08:12:11;;;;;;;9.63;1.30;;;18.70;99.90;;;;;;5034999;28;20026;-66
2022/07/07 08:14:37;;;;;;;5.95;1.40;;;18.60;99.90;;;;;;5035022;28;20033;-66
2022/07/07 08:17:03;;;;;;;6.85;1.45;;;18.40;99.90;;;;;;5034895;28;20539;-66
2022/07/07 08:19:29;;;;;;;7.78;1.52;;;18.50;99.90;;;;;;5034744;28;20108;-66
2022/07/07 08:21:54;;;;;;;4.72;1.02;;;18.30;99.90;;;;;;5034734;28;20029;-66
2022/07/07 08:24:20;;;;;;;6.22;1.50;;;18.00;99.90;;;;;;5034804;28;20097;-66
2022/07/07 08:26:46;;;;;;;4.53;1.20;;;17.80;99.90;;;;;;5034640;28;20497;-66
2022/07/07 08:29:11;;;;;;;10.23;1.75;;;18.00;99.90;;;;;;5034647;28;20082;-66
2022/07/07 08:31:37;;;;;;;8.77;1.33;;;18.30;99.90;;;;;;5034729;28;20538;-66
2022/07/07 08:34:03;;;;;;;4.95;1.45;;;18.20;99.90;;;;;;5034905;28;20033;-66
2022/07/07 08:36:30;;;;;;;6.40;1.00;;;17.60;99.90;;;;;;5034488;28;20057;-65
2022/07/07 08:38:56;;;;;;;11.98;1.38;;;17.10;99.90;;;;;;5034693;28;20060;-65
2022/07/07 08:41:22;;;;;;;5.05;1.10;;;17.10;99.90;;;;;;5034455;28;20076;-66
2022/07/07 08:43:50;;;;;;;18.38;1.73;;;17.10;99.90;;;;;;5034212;28;20389;-66
2022/07/07 08:46:15;;;;;;;10.73;1.38;;;17.50;99.90;;;;;;5034496;28;20362;-66
2022/07/07 08:48:41;;;;;;;7.95;1.80;;;17.90;99.90;;;;;;5034218;28;20120;-66
2022/07/07 08:51:08;;;;;;;4.72;1.27;;;18.20;99.90;;;;;;5034586;28;20357;-66
2022/07/07 08:53:35;;;;;;;7.43;1.05;;;17.90;99.90;;;;;;5034427;28;20037;-66
2022/07/07 08:56:06;;;;;;;5.03;1.23;;;17.60;99.90;;;;;;5034741;28;20120;-66
2022/07/07 08:58:32;;;;;;;4.15;1.17;;;17.30;99.90;;;;;;5034174;28;20408;-66
2022/07/07 09:00:58;;;;;;;4.97;1.42;;;17.10;99.90;;;;;;5034053;28;20545;-66
2022/07/07 09:03:26;;;;;;;4.18;1.30;;;17.00;99.90;;;;;;5034093;28;20060;-65
2022/07/07 09:05:53;;;;;;;8.50;1.58;;;16.90;99.90;;;;;;5034065;28;20017;-66
2022/07/07 09:08:21;;;;;;;7.88;1.70;;;16.80;99.90;;;;;;5033849;28;20432;-66
2022/07/07 09:10:47;;;;;;;4.45;1.35;;;17.10;99.90;;;;;;5034243;28;20377;-66
2022/07/07 09:13:19;;;;;;;3.17;1.08;;;17.10;99.90;;;;;;5033992;28;20025;-66
2022/07/07 09:15:44;;;;;;;5.40;1.08;;;17.20;99.90;;;;;;5033689;28;20104;-65
2022/07/07 09:18:10;;;;;;;8.52;1.70;;;17.20;99.90;;;;;;5034025;28;20108;-66
2022/07/07 09:20:36;;;;;;;12.07;2.22;;;17.30;99.90;;;;;;5033766;28;20021;-66
2022/07/07 09:23:02;;;;;;;14.45;2.28;;;17.40;99.90;;;;;;5034048;28;20415;-69
2022/07/07 09:25:28;;;;;;;10.05;1.92;;;17.40;99.90;;;;;;5033750;28;20445;-65
2022/07/07 09:28:01;;;;;;;17.33;2.80;;;17.20;99.90;;;;;;5033879;28;20057;-66
2022/07/07 09:30:38;;;;;;;18.50;2.67;;;17.10;99.90;;;;;;5034084;28;20083;-66
2022/07/07 09:33:12;;;;;;;15.10;3.08;;;17.20;99.90;;;;;;5033653;28;20037;-66
2022/07/07 09:38:30;;;;;;;10.77;2.92;;;17.50;99.90;;;;;;5033839;28;20036;-65
2022/07/07 09:41:03;;;;;;;21.92;3.70;;;17.30;99.90;;;;;;5033668;28;20037;-65
2022/07/07 09:43:38;;;;;;;22.48;3.80;;;17.10;99.90;;;;;;5033817;28;20056;-66
2022/07/07 09:46:20;;;;;;;27.15;4.68;;;17.00;99.90;;;;;;5033755;28;20036;-66
2022/07/07 09:48:51;;;;;;;24.67;3.70;;;17.10;99.90;;;;;;5033620;28;20097;-66
2022/07/07 09:51:26;;;;;;;19.25;3.33;;;17.00;99.90;;;;;;5033671;28;20049;-65
2022/07/07 09:53:55;;;;;;;22.15;3.30;;;16.90;99.90;;;;;;5033706;28;20136;-65
2022/07/07 09:56:23;;;;;;;19.38;2.97;;;16.80;99.90;;;;;;5033875;28;20435;-65
2022/07/07 09:58:49;;;;;;;20.42;3.15;;;16.80;99.90;;;;;;5033067;28;20078;-66
2022/07/07 10:01:16;;;;;;;25.52;4.15;;;17.10;99.90;;;;;;5033576;28;20144;-65
2022/07/07 10:03:43;;;;;;;22.35;4.35;;;17.40;99.90;;;;;;5033177;28;20018;-66
2022/07/07 10:06:12;;;;;;;22.55;3.33;;;17.80;99.90;;;;;;5033309;28;20029;-66
2022/07/07 10:08:45;;;;;;;24.70;3.53;;;17.70;99.90;;;;;;5033176;28;20030;-66
2022/07/07 10:11:17;;;;;;;31.67;4.82;;;17.60;99.90;;;;;;5033504;28;20034;-65
2022/07/07 10:13:43;;;;;;;29.35;4.78;;;17.40;99.90;;;;;;5035316;28;20037;-65
2022/07/07 10:16:10;;;;;;;27.80;4.47;;;17.30;99.90;;;;;;5037202;28;20543;-66
2022/07/07 10:18:36;;;;;;;37.80;5.95;;;17.10;99.90;;;;;;5037129;28;20037;-66
2022/07/07 10:21:02;;;;;;;27.60;5.07;;;17.10;99.90;;;;;;5037460;28;20079;-66
2022/07/07 10:23:32;;;;;;;34.72;5.25;;;17.20;99.90;;;;;;5037070;28;20033;-65
2022/07/07 10:26:09;;;;;;;23.13;4.15;;;17.30;99.90;;;;;;5037064;28;20064;-66
2022/07/07 10:28:55;;;;;;;28.42;4.15;;;17.20;99.90;;;;;;5000732;28;20101;-66
2022/07/07 10:31:23;;;;;;;25.08;4.20;;;17.20;99.90;;;;;;5017431;28;20113;-66
2022/07/07 10:33:59;;;;;;;21.58;4.63;;;17.20;99.90;;;;;;5017091;28;20033;-65
2022/07/07 10:36:25;;;;;;;24.63;5.05;;;17.30;99.90;;;;;;5016982;28;20025;-66
2022/07/07 10:38:52;;;;;;;27.92;4.97;;;17.40;99.90;;;;;;5016949;28;20029;-65
2022/07/07 10:41:23;;;;;;;28.55;5.18;;;17.50;99.90;;;;;;5016853;28;20014;-67
2022/07/07 10:43:58;;;;;;;28.45;4.93;;;17.40;99.90;;;;;;5026664;28;20022;-66
2022/07/07 10:46:24;;;;;;;28.75;5.10;;;17.40;99.90;;;;;;5036966;28;20112;-66
2022/07/07 10:48:52;;;;;;;36.47;6.10;;;17.40;99.90;;;;;;5036522;28;20115;-66
2022/07/07 10:51:19;;;;;;;33.75;5.50;;;17.50;99.90;;;;;;5036511;28;20477;-66
2022/07/07 10:53:57;;;;;;;26.27;4.90;;;17.40;99.90;;;;;;5036756;28;20053;-66
2022/07/07 10:56:23;;;;;;;27.45;5.50;;;17.50;99.90;;;;;;5036287;28;20037;-66
2022/07/07 10:58:53;;;;;;;29.73;4.63;;;17.60;99.90;;;;;;5036397;28;20611;-66
2022/07/07 11:01:19;;;;;;;29.90;4.93;;;18.20;99.90;;;;;;5036576;28;20362;-66
2022/07/07 11:03:45;;;;;;;23.30;3.22;;;18.20;99.90;;;;;;5036611;28;20029;-66
2022/07/07 11:06:10;;;;;;;28.15;4.07;;;18.40;99.90;;;;;;5036284;28;20038;-66
2022/07/07 11:08:38;;;;;;;23.75;3.97;;;18.60;99.90;;;;;;5036092;28;20465;-66
2022/07/07 11:11:05;;;;;;;36.88;4.00;;;18.40;99.90;;;;;;5036033;28;20030;-66
2022/07/07 11:13:32;;;;;;;39.08;5.18;;;18.30;99.90;;;;;;5036713;28;20021;-66
2022/07/07 11:16:23;;;;;;;25.23;4.22;;;18.40;99.90;;;;;;5036566;28;20072;-66
2022/07/07 11:18:56;;;;;;;36.95;6.10;;;18.20;99.90;;;;;;5036033;28;20072;-66
2022/07/07 11:21:43;;;;;;;27.48;4.38;;;17.90;99.90;;;;;;5035944;28;20409;-66
2022/07/07 11:24:21;;;;;;;29.48;3.58;;;18.00;99.90;;;;;;5035407;28;20037;-66
2022/07/07 11:26:55;;;;;;;21.50;3.55;;;18.00;99.90;;;;;;5035926;28;20028;-66
2022/07/07 11:29:20;;;;;;;19.58;3.55;;;18.20;99.90;;;;;;5035827;28;20398;-66
2022/07/07 11:31:46;;;;;;;19.48;3.35;;;18.40;99.90;;;;;;5036325;28;20022;-66
2022/07/07 11:34:12;;;;;;;22.13;4.25;;;18.60;99.90;;;;;;5035711;28;20473;-66
2022/07/07 11:36:38;;;;;;;32.85;5.82;;;18.50;99.90;;;;;;5035461;28;20032;-66
2022/07/07 11:39:06;;;;;;;33.50;4.32;;;18.40;99.90;;;;;;5035612;28;20018;-66
2022/07/07 11:41:45;;;;;;;21.85;3.70;;;18.10;99.90;;;;;;5035624;28;20029;-66
2022/07/07 11:44:20;;;;;;;32.47;4.50;;;18.20;99.90;;;;;;5015743;28;20049;-66
2022/07/07 11:46:52;;;;;;;21.92;4.40;;;18.80;99.90;;;;;;5015958;28;20493;-66
2022/07/07 11:49:20;;;;;;;23.67;4.47;;;19.10;99.90;;;;;;5034934;28;20022;-68
2022/07/07 11:51:46;;;;;;;31.65;4.70;;;19.10;99.90;;;;;;5035549;28;20049;-68
2022/07/07 11:54:12;;;;;;;24.83;4.25;;;18.70;99.90;;;;;;5035526;28;20080;-68
2022/07/07 11:56:37;;;;;;;27.65;4.15;;;18.50;99.90;;;;;;5035369;28;20417;-68
2022/07/07 11:59:04;;;;;;;37.65;5.35;;;18.50;99.90;;;;;;5035112;28;20038;-68
2022/07/07 12:01:31;;;;;;;30.17;4.55;;;19.20;99.90;;;;;;5035195;28;20448;-68
2022/07/07 12:03:57;;;;;;;23.50;4.22;;;19.30;99.90;;;;;;5035227;28;20470;-68
2022/07/07 12:06:27;;;;;;;25.25;4.28;;;19.30;99.90;;;;;;5033942;28;20084;-68
2022/07/07 12:08:54;;;;;;;21.65;3.42;;;19.60;99.90;;;;;;5034302;28;20033;-68
2022/07/07 12:11:20;;;;;;;30.08;5.13;;;19.30;99.90;;;;;;5035139;28;20025;-68
2022/07/07 12:13:46;;;;;;;25.88;6.25;;;19.20;99.90;;;;;;5034989;28;20041;-68
2022/07/07 12:16:12;;;;;;;30.55;4.82;;;18.80;99.90;;;;;;5035231;28;20025;-68
2022/07/07 12:18:40;;;;;;;44.58;4.65;;;18.70;99.90;;;;;;5035016;28;20025;-67
2022/07/07 12:21:10;;;;;;;23.15;4.75;;;18.90;99.90;;;;;;5034951;28;20083;-68
2022/07/07 12:23:37;;;;;;;17.65;3.20;;;19.80;99.90;;;;;;5033235;28;20381;-68
2022/07/07 12:26:21;;;;;;;40.75;5.15;;;20.50;99.90;;;;;;5034840;28;20032;-68
2022/07/07 12:28:48;;;;;;;;;;;20.00;99.90;;;;;;5031489;28;20442;-68
2022/07/07 12:31:18;;;;;;;43.72;5.60;;;19.50;99.90;;;;;;5034140;28;20288;-68
2022/07/07 12:33:44;;;;;;;35.22;4.85;;;19.00;99.90;;;;;;5034673;28;20519;-68
2022/07/07 12:36:33;;;;;;;23.30;4.15;;;19.00;99.90;;;;;;5034394;28;20029;-68
2022/07/07 12:38:59;;;;;;;26.40;3.83;;;19.50;99.90;;;;;;5034709;28;20056;-68
2022/07/07 12:41:27;;;;;;;37.05;4.25;;;20.30;99.90;;;;;;5034597;28;20024;-68